You are listening to:
T67 CTAF/Clearance - Fort Worth, Texas, United States

KAFW 040453Z 32009KT 10SM OVC020 05/00 A3028 RMK AO2 SLP261 T00500000

If stream doesn't start automatically press the play button
If stream stops then reload player then press play